sensor_id;sensor_type;location;lat;lon;timestamp;P1;durP1;ratioP1;P2;durP2;ratioP2
32485;SDS011;18935;52.236;21.134;2022-08-20T00:00:38;9.10;;;5.50;;
32485;SDS011;18935;52.236;21.134;2022-08-20T00:03:14;13.63;;;6.07;;
32485;SDS011;18935;52.236;21.134;2022-08-20T00:05:45;12.00;;;5.90;;
32485;SDS011;18935;52.236;21.134;2022-08-20T00:08:15;14.10;;;5.80;;
32485;SDS011;18935;52.236;21.134;2022-08-20T00:10:42;12.40;;;6.15;;
32485;SDS011;18935;52.236;21.134;2022-08-20T00:13:11;14.32;;;5.95;;
32485;SDS011;18935;52.236;21.134;2022-08-20T00:15:38;13.07;;;5.97;;
32485;SDS011;18935;52.236;21.134;2022-08-20T00:18:04;10.82;;;5.85;;
32485;SDS011;18935;52.236;21.134;2022-08-20T00:20:32;12.95;;;6.13;;
32485;SDS011;18935;52.236;21.134;2022-08-20T00:25:26;11.32;;;6.15;;
32485;SDS011;18935;52.236;21.134;2022-08-20T00:27:52;17.60;;;5.82;;
32485;SDS011;18935;52.236;21.134;2022-08-20T00:30:18;19.83;;;6.22;;
32485;SDS011;18935;52.236;21.134;2022-08-20T00:32:46;13.13;;;6.70;;
32485;SDS011;18935;52.236;21.134;2022-08-20T00:35:16;12.93;;;6.82;;
32485;SDS011;18935;52.236;21.134;2022-08-20T00:37:43;10.18;;;5.82;;
32485;SDS011;18935;52.236;21.134;2022-08-20T00:40:09;25.33;;;7.47;;
32485;SDS011;18935;52.236;21.134;2022-08-20T00:42:46;13.30;;;6.70;;
32485;SDS011;18935;52.236;21.134;2022-08-20T00:45:16;19.00;;;6.97;;
32485;SDS011;18935;52.236;21.134;2022-08-20T00:47:43;11.82;;;7.03;;
32485;SDS011;18935;52.236;21.134;2022-08-20T00:50:10;11.32;;;6.55;;
32485;SDS011;18935;52.236;21.134;2022-08-20T00:52:39;15.05;;;6.22;;
32485;SDS011;18935;52.236;21.134;2022-08-20T00:55:07;15.07;;;5.78;;
32485;SDS011;18935;52.236;21.134;2022-08-20T00:57:41;16.27;;;6.88;;
32485;SDS011;18935;52.236;21.134;2022-08-20T01:00:18;11.70;;;6.82;;
32485;SDS011;18935;52.236;21.134;2022-08-20T01:02:46;14.52;;;7.07;;
32485;SDS011;18935;52.236;21.134;2022-08-20T01:05:12;13.48;;;7.15;;
32485;SDS011;18935;52.236;21.134;2022-08-20T01:07:39;11.73;;;6.20;;
32485;SDS011;18935;52.236;21.134;2022-08-20T01:10:07;13.93;;;6.50;;
32485;SDS011;18935;52.236;21.134;2022-08-20T01:12:40;16.25;;;6.40;;
32485;SDS011;18935;52.236;21.134;2022-08-20T01:15:09;15.13;;;6.22;;
32485;SDS011;18935;52.236;21.134;2022-08-20T01:17:38;14.30;;;7.13;;
32485;SDS011;18935;52.236;21.134;2022-08-20T01:20:11;12.43;;;5.72;;
32485;SDS011;18935;52.236;21.134;2022-08-20T01:22:41;13.85;;;6.50;;
32485;SDS011;18935;52.236;21.134;2022-08-20T01:25:44;13.48;;;6.30;;
32485;SDS011;18935;52.236;21.134;2022-08-20T01:28:13;13.27;;;6.25;;
32485;SDS011;18935;52.236;21.134;2022-08-20T01:30:52;16.48;;;6.20;;
32485;SDS011;18935;52.236;21.134;2022-08-20T01:33:19;13.15;;;6.25;;
32485;SDS011;18935;52.236;21.134;2022-08-20T01:35:46;15.32;;;6.93;;
32485;SDS011;18935;52.236;21.134;2022-08-20T01:38:13;16.80;;;6.82;;
32485;SDS011;18935;52.236;21.134;2022-08-20T01:40:51;13.13;;;6.43;;
32485;SDS011;18935;52.236;21.134;2022-08-20T01:43:19;15.45;;;6.35;;
32485;SDS011;18935;52.236;21.134;2022-08-20T01:45:44;15.63;;;6.32;;
32485;SDS011;18935;52.236;21.134;2022-08-20T01:48:10;15.35;;;6.40;;
32485;SDS011;18935;52.236;21.134;2022-08-20T01:50:39;11.15;;;6.20;;
32485;SDS011;18935;52.236;21.134;2022-08-20T01:53:16;14.00;;;6.60;;
32485;SDS011;18935;52.236;21.134;2022-08-20T01:55:46;15.25;;;6.43;;
32485;SDS011;18935;52.236;21.134;2022-08-20T01:58:11;13.70;;;6.43;;
32485;SDS011;18935;52.236;21.134;2022-08-20T02:00:37;17.02;;;6.63;;
32485;SDS011;18935;52.236;21.134;2022-08-20T02:03:02;11.37;;;6.40;;
32485;SDS011;18935;52.236;21.134;2022-08-20T02:05:29;14.23;;;7.38;;
32485;SDS011;18935;52.236;21.134;2022-08-20T02:07:56;12.23;;;6.80;;
32485;SDS011;18935;52.236;21.134;2022-08-20T02:10:22;13.55;;;6.90;;
32485;SDS011;18935;52.236;21.134;2022-08-20T02:12:47;10.80;;;6.50;;
32485;SDS011;18935;52.236;21.134;2022-08-20T02:15:13;17.30;;;7.68;;
32485;SDS011;18935;52.236;21.134;2022-08-20T02:17:39;10.88;;;6.93;;
32485;SDS011;18935;52.236;21.134;2022-08-20T02:20:08;15.95;;;7.65;;
32485;SDS011;18935;52.236;21.134;2022-08-20T02:22:42;18.33;;;7.70;;
32485;SDS011;18935;52.236;21.134;2022-08-20T02:25:11;18.23;;;8.00;;
32485;SDS011;18935;52.236;21.134;2022-08-20T02:27:38;14.40;;;7.40;;
32485;SDS011;18935;52.236;21.134;2022-08-20T02:30:10;15.15;;;6.90;;
32485;SDS011;18935;52.236;21.134;2022-08-20T02:32:40;12.93;;;6.75;;
32485;SDS011;18935;52.236;21.134;2022-08-20T02:35:06;23.55;;;7.60;;
32485;SDS011;18935;52.236;21.134;2022-08-20T02:37:35;25.85;;;8.07;;
32485;SDS011;18935;52.236;21.134;2022-08-20T02:40:02;19.38;;;7.20;;
32485;SDS011;18935;52.236;21.134;2022-08-20T02:42:32;16.08;;;7.45;;
32485;SDS011;18935;52.236;21.134;2022-08-20T02:44:57;14.27;;;7.22;;
32485;SDS011;18935;52.236;21.134;2022-08-20T02:47:23;15.77;;;7.00;;
32485;SDS011;18935;52.236;21.134;2022-08-20T02:49:51;16.45;;;7.45;;
32485;SDS011;18935;52.236;21.134;2022-08-20T02:52:18;19.45;;;7.57;;
32485;SDS011;18935;52.236;21.134;2022-08-20T02:54:43;19.20;;;7.70;;
32485;SDS011;18935;52.236;21.134;2022-08-20T02:57:16;11.55;;;7.18;;
32485;SDS011;18935;52.236;21.134;2022-08-20T02:59:44;15.13;;;8.15;;
32485;SDS011;18935;52.236;21.134;2022-08-20T03:02:10;13.23;;;7.32;;
32485;SDS011;18935;52.236;21.134;2022-08-20T03:04:36;21.55;;;7.22;;
32485;SDS011;18935;52.236;21.134;2022-08-20T03:07:01;19.33;;;7.57;;
32485;SDS011;18935;52.236;21.134;2022-08-20T03:09:28;16.75;;;7.38;;
32485;SDS011;18935;52.236;21.134;2022-08-20T03:11:54;14.75;;;7.60;;
32485;SDS011;18935;52.236;21.134;2022-08-20T03:14:19;16.77;;;7.40;;
32485;SDS011;18935;52.236;21.134;2022-08-20T03:16:44;18.70;;;7.70;;
32485;SDS011;18935;52.236;21.134;2022-08-20T03:19:10;14.50;;;7.43;;
32485;SDS011;18935;52.236;21.134;2022-08-20T03:21:35;13.70;;;7.87;;
32485;SDS011;18935;52.236;21.134;2022-08-20T03:24:01;12.20;;;7.53;;
32485;SDS011;18935;52.236;21.134;2022-08-20T03:26:27;15.52;;;7.78;;
32485;SDS011;18935;52.236;21.134;2022-08-20T03:28:52;15.37;;;7.77;;
32485;SDS011;18935;52.236;21.134;2022-08-20T03:31:17;17.13;;;8.50;;
32485;SDS011;18935;52.236;21.134;2022-08-20T03:33:43;18.03;;;8.70;;
32485;SDS011;18935;52.236;21.134;2022-08-20T03:36:08;12.90;;;7.70;;
32485;SDS011;18935;52.236;21.134;2022-08-20T03:38:34;16.60;;;7.88;;
32485;SDS011;18935;52.236;21.134;2022-08-20T03:41:00;16.20;;;8.27;;
32485;SDS011;18935;52.236;21.134;2022-08-20T03:43:26;21.42;;;8.02;;
32485;SDS011;18935;52.236;21.134;2022-08-20T03:45:52;17.48;;;8.00;;
32485;SDS011;18935;52.236;21.134;2022-08-20T03:48:19;18.27;;;8.17;;
32485;SDS011;18935;52.236;21.134;2022-08-20T03:50:44;15.88;;;8.18;;
32485;SDS011;18935;52.236;21.134;2022-08-20T03:53:13;15.05;;;8.80;;
32485;SDS011;18935;52.236;21.134;2022-08-20T03:55:40;15.07;;;8.07;;
32485;SDS011;18935;52.236;21.134;2022-08-20T03:58:07;13.25;;;7.75;;
32485;SDS011;18935;52.236;21.134;2022-08-20T04:00:41;16.67;;;8.25;;
32485;SDS011;18935;52.236;21.134;2022-08-20T04:03:09;17.02;;;8.40;;
32485;SDS011;18935;52.236;21.134;2022-08-20T04:05:36;16.13;;;7.90;;
32485;SDS011;18935;52.236;21.134;2022-08-20T04:08:23;15.98;;;7.97;;
32485;SDS011;18935;52.236;21.134;2022-08-20T04:10:51;15.77;;;8.38;;
32485;SDS011;18935;52.236;21.134;2022-08-20T04:13:18;15.20;;;8.65;;
32485;SDS011;18935;52.236;21.134;2022-08-20T04:15:45;15.32;;;8.73;;
32485;SDS011;18935;52.236;21.134;2022-08-20T04:18:12;24.90;;;9.90;;
32485;SDS011;18935;52.236;21.134;2022-08-20T04:20:39;14.90;;;9.13;;
32485;SDS011;18935;52.236;21.134;2022-08-20T04:23:06;19.58;;;10.55;;
32485;SDS011;18935;52.236;21.134;2022-08-20T04:25:32;21.10;;;9.32;;
32485;SDS011;18935;52.236;21.134;2022-08-20T04:27:59;19.20;;;8.32;;
32485;SDS011;18935;52.236;21.134;2022-08-20T04:30:26;10.38;;;8.00;;
32485;SDS011;18935;52.236;21.134;2022-08-20T04:32:51;14.52;;;8.15;;
32485;SDS011;18935;52.236;21.134;2022-08-20T04:35:17;12.15;;;8.18;;
32485;SDS011;18935;52.236;21.134;2022-08-20T04:37:46;17.13;;;8.23;;
32485;SDS011;18935;52.236;21.134;2022-08-20T04:40:13;11.30;;;7.87;;
32485;SDS011;18935;52.236;21.134;2022-08-20T04:43:01;14.15;;;8.88;;
32485;SDS011;18935;52.236;21.134;2022-08-20T04:45:28;15.00;;;8.95;;
32485;SDS011;18935;52.236;21.134;2022-08-20T04:47:54;11.82;;;7.72;;
32485;SDS011;18935;52.236;21.134;2022-08-20T04:50:20;15.50;;;8.45;;
32485;SDS011;18935;52.236;21.134;2022-08-20T04:52:46;20.63;;;8.70;;
32485;SDS011;18935;52.236;21.134;2022-08-20T04:55:13;13.55;;;7.72;;
32485;SDS011;18935;52.236;21.134;2022-08-20T04:57:40;15.05;;;8.27;;
32485;SDS011;18935;52.236;21.134;2022-08-20T05:00:07;21.60;;;9.27;;
32485;SDS011;18935;52.236;21.134;2022-08-20T05:02:36;18.65;;;9.40;;
32485;SDS011;18935;52.236;21.134;2022-08-20T05:05:03;17.60;;;9.05;;
32485;SDS011;18935;52.236;21.134;2022-08-20T05:07:34;17.48;;;9.02;;
32485;SDS011;18935;52.236;21.134;2022-08-20T05:10:03;19.02;;;9.18;;
32485;SDS011;18935;52.236;21.134;2022-08-20T05:12:29;28.55;;;9.82;;
32485;SDS011;18935;52.236;21.134;2022-08-20T05:14:54;20.43;;;8.77;;
32485;SDS011;18935;52.236;21.134;2022-08-20T05:17:21;16.70;;;8.60;;
32485;SDS011;18935;52.236;21.134;2022-08-20T05:19:47;19.13;;;8.45;;
32485;SDS011;18935;52.236;21.134;2022-08-20T05:22:13;13.70;;;8.85;;
32485;SDS011;18935;52.236;21.134;2022-08-20T05:24:38;17.17;;;9.07;;
32485;SDS011;18935;52.236;21.134;2022-08-20T05:27:03;20.35;;;9.10;;
32485;SDS011;18935;52.236;21.134;2022-08-20T05:29:28;18.00;;;8.43;;
32485;SDS011;18935;52.236;21.134;2022-08-20T05:31:54;23.70;;;8.23;;
32485;SDS011;18935;52.236;21.134;2022-08-20T05:34:20;16.63;;;9.13;;
32485;SDS011;18935;52.236;21.134;2022-08-20T05:36:46;12.82;;;8.32;;
32485;SDS011;18935;52.236;21.134;2022-08-20T05:39:14;25.63;;;9.20;;
32485;SDS011;18935;52.236;21.134;2022-08-20T05:41:40;20.70;;;9.40;;
32485;SDS011;18935;52.236;21.134;2022-08-20T05:44:06;16.02;;;8.23;;
32485;SDS011;18935;52.236;21.134;2022-08-20T05:46:40;14.23;;;8.82;;
32485;SDS011;18935;52.236;21.134;2022-08-20T05:49:12;15.65;;;8.80;;
32485;SDS011;18935;52.236;21.134;2022-08-20T05:51:40;15.85;;;8.75;;
32485;SDS011;18935;52.236;21.134;2022-08-20T05:54:06;14.60;;;8.68;;
32485;SDS011;18935;52.236;21.134;2022-08-20T05:56:32;16.83;;;8.67;;
32485;SDS011;18935;52.236;21.134;2022-08-20T05:58:59;17.40;;;9.15;;
32485;SDS011;18935;52.236;21.134;2022-08-20T06:01:27;15.23;;;9.15;;
32485;SDS011;18935;52.236;21.134;2022-08-20T06:03:54;18.42;;;8.80;;
32485;SDS011;18935;52.236;21.134;2022-08-20T06:06:38;16.48;;;7.57;;
32485;SDS011;18935;52.236;21.134;2022-08-20T06:09:04;18.48;;;8.70;;
32485;SDS011;18935;52.236;21.134;2022-08-20T06:11:29;17.45;;;8.93;;
32485;SDS011;18935;52.236;21.134;2022-08-20T06:13:55;16.93;;;9.20;;
32485;SDS011;18935;52.236;21.134;2022-08-20T06:16:20;15.90;;;8.40;;
32485;SDS011;18935;52.236;21.134;2022-08-20T06:18:45;19.73;;;8.80;;
32485;SDS011;18935;52.236;21.134;2022-08-20T06:21:11;28.53;;;9.50;;
32485;SDS011;18935;52.236;21.134;2022-08-20T06:23:36;20.50;;;8.67;;
32485;SDS011;18935;52.236;21.134;2022-08-20T06:26:01;15.37;;;8.07;;
32485;SDS011;18935;52.236;21.134;2022-08-20T06:28:27;13.48;;;9.00;;
32485;SDS011;18935;52.236;21.134;2022-08-20T06:30:52;19.83;;;8.20;;
32485;SDS011;18935;52.236;21.134;2022-08-20T06:33:17;21.38;;;8.63;;
32485;SDS011;18935;52.236;21.134;2022-08-20T06:35:43;14.70;;;8.07;;
32485;SDS011;18935;52.236;21.134;2022-08-20T06:38:09;13.93;;;8.20;;
32485;SDS011;18935;52.236;21.134;2022-08-20T06:40:36;13.52;;;8.63;;
32485;SDS011;18935;52.236;21.134;2022-08-20T06:43:02;15.68;;;8.27;;
32485;SDS011;18935;52.236;21.134;2022-08-20T06:45:29;12.77;;;7.95;;
32485;SDS011;18935;52.236;21.134;2022-08-20T06:47:56;18.23;;;8.90;;
32485;SDS011;18935;52.236;21.134;2022-08-20T06:50:28;18.60;;;8.52;;
32485;SDS011;18935;52.236;21.134;2022-08-20T06:53:03;14.68;;;8.50;;
32485;SDS011;18935;52.236;21.134;2022-08-20T06:55:29;18.75;;;8.82;;
32485;SDS011;18935;52.236;21.134;2022-08-20T06:57:56;17.40;;;9.30;;
32485;SDS011;18935;52.236;21.134;2022-08-20T07:00:27;17.52;;;9.20;;
32485;SDS011;18935;52.236;21.134;2022-08-20T07:02:53;14.57;;;8.77;;
32485;SDS011;18935;52.236;21.134;2022-08-20T07:05:18;23.02;;;9.20;;
32485;SDS011;18935;52.236;21.134;2022-08-20T07:07:44;13.93;;;8.90;;
32485;SDS011;18935;52.236;21.134;2022-08-20T07:10:11;20.23;;;9.00;;
32485;SDS011;18935;52.236;21.134;2022-08-20T07:12:38;14.65;;;8.82;;
32485;SDS011;18935;52.236;21.134;2022-08-20T07:15:04;14.13;;;8.50;;
32485;SDS011;18935;52.236;21.134;2022-08-20T07:17:35;17.10;;;8.50;;
32485;SDS011;18935;52.236;21.134;2022-08-20T07:20:08;23.63;;;8.23;;
32485;SDS011;18935;52.236;21.134;2022-08-20T07:22:37;15.60;;;8.57;;
32485;SDS011;18935;52.236;21.134;2022-08-20T07:25:03;20.85;;;9.10;;
32485;SDS011;18935;52.236;21.134;2022-08-20T07:27:28;14.43;;;8.48;;
32485;SDS011;18935;52.236;21.134;2022-08-20T07:29:54;13.25;;;8.27;;
32485;SDS011;18935;52.236;21.134;2022-08-20T07:32:37;19.08;;;9.02;;
32485;SDS011;18935;52.236;21.134;2022-08-20T07:35:03;13.23;;;8.50;;
32485;SDS011;18935;52.236;21.134;2022-08-20T07:37:40;20.25;;;8.82;;
32485;SDS011;18935;52.236;21.134;2022-08-20T07:40:12;17.13;;;8.27;;
32485;SDS011;18935;52.236;21.134;2022-08-20T07:42:40;22.92;;;8.45;;
32485;SDS011;18935;52.236;21.134;2022-08-20T07:45:06;14.45;;;8.50;;
32485;SDS011;18935;52.236;21.134;2022-08-20T07:47:35;15.37;;;8.70;;
32485;SDS011;18935;52.236;21.134;2022-08-20T07:50:01;14.38;;;8.45;;
32485;SDS011;18935;52.236;21.134;2022-08-20T07:52:27;20.60;;;8.25;;
32485;SDS011;18935;52.236;21.134;2022-08-20T07:54:52;15.33;;;8.13;;
32485;SDS011;18935;52.236;21.134;2022-08-20T07:57:17;13.43;;;8.10;;
32485;SDS011;18935;52.236;21.134;2022-08-20T07:59:43;17.53;;;8.37;;
32485;SDS011;18935;52.236;21.134;2022-08-20T08:02:10;15.90;;;8.68;;
32485;SDS011;18935;52.236;21.134;2022-08-20T08:04:36;18.02;;;7.82;;
32485;SDS011;18935;52.236;21.134;2022-08-20T08:07:02;18.08;;;8.35;;
32485;SDS011;18935;52.236;21.134;2022-08-20T08:09:28;17.55;;;7.90;;
32485;SDS011;18935;52.236;21.134;2022-08-20T08:11:55;17.48;;;7.93;;
32485;SDS011;18935;52.236;21.134;2022-08-20T08:14:23;14.70;;;7.95;;
32485;SDS011;18935;52.236;21.134;2022-08-20T08:16:52;14.77;;;7.70;;
32485;SDS011;18935;52.236;21.134;2022-08-20T08:19:19;15.38;;;8.13;;
32485;SDS011;18935;52.236;21.134;2022-08-20T08:21:45;19.75;;;8.35;;
32485;SDS011;18935;52.236;21.134;2022-08-20T08:24:10;14.02;;;7.15;;
32485;SDS011;18935;52.236;21.134;2022-08-20T08:26:36;13.73;;;7.72;;
32485;SDS011;18935;52.236;21.134;2022-08-20T08:29:02;14.32;;;7.68;;
32485;SDS011;18935;52.236;21.134;2022-08-20T08:31:27;15.52;;;7.70;;
32485;SDS011;18935;52.236;21.134;2022-08-20T08:33:53;20.08;;;7.95;;
32485;SDS011;18935;52.236;21.134;2022-08-20T08:36:19;15.45;;;7.10;;
32485;SDS011;18935;52.236;21.134;2022-08-20T08:38:44;15.93;;;7.43;;
32485;SDS011;18935;52.236;21.134;2022-08-20T08:43:52;16.55;;;7.75;;
32485;SDS011;18935;52.236;21.134;2022-08-20T08:46:18;14.50;;;7.90;;
32485;SDS011;18935;52.236;21.134;2022-08-20T08:48:48;16.58;;;7.72;;
32485;SDS011;18935;52.236;21.134;2022-08-20T08:51:18;15.27;;;7.50;;
32485;SDS011;18935;52.236;21.134;2022-08-20T08:53:51;14.90;;;7.43;;
32485;SDS011;18935;52.236;21.134;2022-08-20T08:56:19;20.50;;;7.80;;
32485;SDS011;18935;52.236;21.134;2022-08-20T08:58:47;10.50;;;6.78;;
32485;SDS011;18935;52.236;21.134;2022-08-20T09:01:15;9.70;;;6.40;;
32485;SDS011;18935;52.236;21.134;2022-08-20T09:03:45;13.95;;;6.63;;
32485;SDS011;18935;52.236;21.134;2022-08-20T09:06:14;15.02;;;6.35;;
32485;SDS011;18935;52.236;21.134;2022-08-20T09:08:48;16.80;;;7.22;;
32485;SDS011;18935;52.236;21.134;2022-08-20T09:11:18;20.30;;;6.30;;
32485;SDS011;18935;52.236;21.134;2022-08-20T09:13:45;12.90;;;6.18;;
32485;SDS011;18935;52.236;21.134;2022-08-20T09:16:11;12.98;;;5.97;;
32485;SDS011;18935;52.236;21.134;2022-08-20T09:18:37;12.70;;;6.07;;
32485;SDS011;18935;52.236;21.134;2022-08-20T09:21:03;12.43;;;6.32;;
32485;SDS011;18935;52.236;21.134;2022-08-20T09:23:29;14.93;;;6.80;;
32485;SDS011;18935;52.236;21.134;2022-08-20T09:25:54;13.80;;;6.37;;
32485;SDS011;18935;52.236;21.134;2022-08-20T09:28:19;17.70;;;6.57;;
32485;SDS011;18935;52.236;21.134;2022-08-20T09:30:45;15.95;;;6.72;;
32485;SDS011;18935;52.236;21.134;2022-08-20T09:33:10;12.43;;;6.30;;
32485;SDS011;18935;52.236;21.134;2022-08-20T09:35:35;12.03;;;6.03;;
32485;SDS011;18935;52.236;21.134;2022-08-20T09:38:01;13.15;;;5.63;;
32485;SDS011;18935;52.236;21.134;2022-08-20T09:40:27;10.65;;;5.65;;
32485;SDS011;18935;52.236;21.134;2022-08-20T09:42:52;14.60;;;5.77;;
32485;SDS011;18935;52.236;21.134;2022-08-20T09:45:20;19.63;;;5.97;;
32485;SDS011;18935;52.236;21.134;2022-08-20T09:47:46;21.52;;;6.22;;
32485;SDS011;18935;52.236;21.134;2022-08-20T09:50:12;13.90;;;5.57;;
32485;SDS011;18935;52.236;21.134;2022-08-20T09:52:41;18.43;;;6.00;;
32485;SDS011;18935;52.236;21.134;2022-08-20T09:57:55;19.02;;;6.15;;
32485;SDS011;18935;52.236;21.134;2022-08-20T10:00:21;13.13;;;5.65;;
32485;SDS011;18935;52.236;21.134;2022-08-20T10:02:46;15.38;;;5.82;;
32485;SDS011;18935;52.236;21.134;2022-08-20T10:05:12;11.93;;;5.82;;
32485;SDS011;18935;52.236;21.134;2022-08-20T10:07:38;19.85;;;6.00;;
32485;SDS011;18935;52.236;21.134;2022-08-20T10:10:05;10.80;;;5.70;;
32485;SDS011;18935;52.236;21.134;2022-08-20T10:12:32;17.20;;;6.55;;
32485;SDS011;18935;52.236;21.134;2022-08-20T10:14:58;15.98;;;6.00;;
32485;SDS011;18935;52.236;21.134;2022-08-20T10:17:23;15.07;;;6.20;;
32485;SDS011;18935;52.236;21.134;2022-08-20T10:19:48;18.88;;;5.85;;
32485;SDS011;18935;52.236;21.134;2022-08-20T10:22:14;13.17;;;5.50;;
32485;SDS011;18935;52.236;21.134;2022-08-20T10:24:39;12.47;;;5.67;;
32485;SDS011;18935;52.236;21.134;2022-08-20T10:27:04;10.23;;;5.77;;
32485;SDS011;18935;52.236;21.134;2022-08-20T10:29:30;12.27;;;6.00;;
32485;SDS011;18935;52.236;21.134;2022-08-20T10:31:55;13.25;;;5.65;;
32485;SDS011;18935;52.236;21.134;2022-08-20T10:34:21;14.05;;;6.18;;
32485;SDS011;18935;52.236;21.134;2022-08-20T10:36:47;11.00;;;5.80;;
32485;SDS011;18935;52.236;21.134;2022-08-20T10:39:13;13.35;;;5.50;;
32485;SDS011;18935;52.236;21.134;2022-08-20T10:41:39;13.07;;;5.65;;
32485;SDS011;18935;52.236;21.134;2022-08-20T10:44:05;14.80;;;5.95;;
32485;SDS011;18935;52.236;21.134;2022-08-20T10:46:31;11.13;;;5.97;;
32485;SDS011;18935;52.236;21.134;2022-08-20T10:48:57;14.43;;;5.40;;
32485;SDS011;18935;52.236;21.134;2022-08-20T10:51:22;19.77;;;6.00;;
32485;SDS011;18935;52.236;21.134;2022-08-20T10:53:47;16.40;;;5.67;;
32485;SDS011;18935;52.236;21.134;2022-08-20T10:56:13;10.93;;;6.20;;
32485;SDS011;18935;52.236;21.134;2022-08-20T10:58:38;16.20;;;5.07;;
32485;SDS011;18935;52.236;21.134;2022-08-20T11:01:03;11.07;;;5.35;;
32485;SDS011;18935;52.236;21.134;2022-08-20T11:03:29;13.60;;;5.20;;
32485;SDS011;18935;52.236;21.134;2022-08-20T11:05:55;23.58;;;5.85;;
32485;SDS011;18935;52.236;21.134;2022-08-20T11:08:20;11.77;;;5.23;;
32485;SDS011;18935;52.236;21.134;2022-08-20T11:10:45;10.90;;;4.90;;
32485;SDS011;18935;52.236;21.134;2022-08-20T11:13:11;16.00;;;5.50;;
32485;SDS011;18935;52.236;21.134;2022-08-20T11:15:38;13.55;;;5.28;;
32485;SDS011;18935;52.236;21.134;2022-08-20T11:18:06;16.25;;;5.68;;
32485;SDS011;18935;52.236;21.134;2022-08-20T11:20:33;11.43;;;5.80;;
32485;SDS011;18935;52.236;21.134;2022-08-20T11:22:58;16.35;;;5.70;;
32485;SDS011;18935;52.236;21.134;2022-08-20T11:25:25;13.38;;;5.32;;
32485;SDS011;18935;52.236;21.134;2022-08-20T11:27:51;16.70;;;5.35;;
32485;SDS011;18935;52.236;21.134;2022-08-20T11:30:21;13.02;;;5.47;;
32485;SDS011;18935;52.236;21.134;2022-08-20T11:32:51;10.65;;;5.13;;
32485;SDS011;18935;52.236;21.134;2022-08-20T11:35:16;14.23;;;5.10;;
32485;SDS011;18935;52.236;21.134;2022-08-20T11:37:43;12.52;;;5.05;;
32485;SDS011;18935;52.236;21.134;2022-08-20T11:40:08;14.98;;;5.45;;
32485;SDS011;18935;52.236;21.134;2022-08-20T11:42:35;15.38;;;5.22;;
32485;SDS011;18935;52.236;21.134;2022-08-20T11:45:01;13.95;;;5.07;;
32485;SDS011;18935;52.236;21.134;2022-08-20T11:47:28;10.38;;;4.85;;
32485;SDS011;18935;52.236;21.134;2022-08-20T11:49:58;11.52;;;5.05;;
32485;SDS011;18935;52.236;21.134;2022-08-20T11:52:25;14.50;;;5.47;;
32485;SDS011;18935;52.236;21.134;2022-08-20T11:54:51;12.35;;;5.50;;
32485;SDS011;18935;52.236;21.134;2022-08-20T11:57:24;14.10;;;5.77;;
32485;SDS011;18935;52.236;21.134;2022-08-20T11:59:52;15.50;;;6.30;;
32485;SDS011;18935;52.236;21.134;2022-08-20T12:02:18;18.10;;;5.28;;
32485;SDS011;18935;52.236;21.134;2022-08-20T12:04:43;12.50;;;5.43;;
32485;SDS011;18935;52.236;21.134;2022-08-20T12:07:10;8.93;;;5.00;;
32485;SDS011;18935;52.236;21.134;2022-08-20T12:09:36;17.42;;;5.63;;
32485;SDS011;18935;52.236;21.134;2022-08-20T12:12:02;13.98;;;5.60;;
32485;SDS011;18935;52.236;21.134;2022-08-20T12:14:28;20.67;;;6.30;;
32485;SDS011;18935;52.236;21.134;2022-08-20T12:16:53;13.97;;;5.57;;
32485;SDS011;18935;52.236;21.134;2022-08-20T12:19:18;16.57;;;5.33;;
32485;SDS011;18935;52.236;21.134;2022-08-20T12:21:44;26.20;;;5.83;;
32485;SDS011;18935;52.236;21.134;2022-08-20T12:24:09;14.77;;;5.30;;
32485;SDS011;18935;52.236;21.134;2022-08-20T12:26:34;13.63;;;5.07;;
32485;SDS011;18935;52.236;21.134;2022-08-20T12:29:00;19.53;;;6.00;;
32485;SDS011;18935;52.236;21.134;2022-08-20T12:31:25;18.00;;;5.43;;
32485;SDS011;18935;52.236;21.134;2022-08-20T12:33:50;17.00;;;6.43;;
32485;SDS011;18935;52.236;21.134;2022-08-20T12:36:15;17.43;;;6.37;;
32485;SDS011;18935;52.236;21.134;2022-08-20T12:38:41;13.83;;;6.10;;
32485;SDS011;18935;52.236;21.134;2022-08-20T12:41:06;20.00;;;5.93;;
32485;SDS011;18935;52.236;21.134;2022-08-20T12:43:31;14.63;;;5.80;;
32485;SDS011;18935;52.236;21.134;2022-08-20T12:45:56;13.53;;;5.47;;
32485;SDS011;18935;52.236;21.134;2022-08-20T12:48:22;14.03;;;5.70;;
32485;SDS011;18935;52.236;21.134;2022-08-20T12:50:47;16.97;;;5.33;;
32485;SDS011;18935;52.236;21.134;2022-08-20T12:53:14;12.70;;;5.63;;
32485;SDS011;18935;52.236;21.134;2022-08-20T12:55:42;12.93;;;5.63;;
32485;SDS011;18935;52.236;21.134;2022-08-20T12:58:08;12.90;;;5.47;;
32485;SDS011;18935;52.236;21.134;2022-08-20T13:00:35;15.57;;;5.10;;
32485;SDS011;18935;52.236;21.134;2022-08-20T13:03:08;13.85;;;5.90;;
32485;SDS011;18935;52.236;21.134;2022-08-20T13:05:35;10.55;;;5.30;;
32485;SDS011;18935;52.236;21.134;2022-08-20T13:08:01;16.52;;;5.50;;
32485;SDS011;18935;52.236;21.134;2022-08-20T13:10:32;12.32;;;5.20;;
32485;SDS011;18935;52.236;21.134;2022-08-20T13:12:59;12.05;;;5.45;;
32485;SDS011;18935;52.236;21.134;2022-08-20T13:15:28;11.95;;;5.68;;
32485;SDS011;18935;52.236;21.134;2022-08-20T13:17:55;14.82;;;5.38;;
32485;SDS011;18935;52.236;21.134;2022-08-20T13:20:22;14.88;;;5.50;;
32485;SDS011;18935;52.236;21.134;2022-08-20T13:22:50;14.90;;;5.50;;
32485;SDS011;18935;52.236;21.134;2022-08-20T13:25:16;15.20;;;5.30;;
32485;SDS011;18935;52.236;21.134;2022-08-20T13:27:42;13.52;;;5.63;;
32485;SDS011;18935;52.236;21.134;2022-08-20T13:30:09;10.45;;;5.43;;
32485;SDS011;18935;52.236;21.134;2022-08-20T13:32:37;12.93;;;5.43;;
32485;SDS011;18935;52.236;21.134;2022-08-20T13:35:02;8.40;;;5.20;;
32485;SDS011;18935;52.236;21.134;2022-08-20T13:37:28;10.70;;;5.30;;
32485;SDS011;18935;52.236;21.134;2022-08-20T13:39:54;11.05;;;5.47;;
32485;SDS011;18935;52.236;21.134;2022-08-20T13:42:21;14.02;;;5.65;;
32485;SDS011;18935;52.236;21.134;2022-08-20T13:44:46;16.00;;;5.57;;
32485;SDS011;18935;52.236;21.134;2022-08-20T13:49:41;12.00;;;5.18;;
32485;SDS011;18935;52.236;21.134;2022-08-20T13:52:07;12.63;;;5.75;;
32485;SDS011;18935;52.236;21.134;2022-08-20T13:54:32;11.35;;;4.93;;
32485;SDS011;18935;52.236;21.134;2022-08-20T13:57:05;15.18;;;5.40;;
32485;SDS011;18935;52.236;21.134;2022-08-20T13:59:36;17.13;;;5.63;;
32485;SDS011;18935;52.236;21.134;2022-08-20T14:02:03;9.70;;;4.95;;
32485;SDS011;18935;52.236;21.134;2022-08-20T14:04:29;14.73;;;6.15;;
32485;SDS011;18935;52.236;21.134;2022-08-20T14:06:54;15.53;;;5.90;;
32485;SDS011;18935;52.236;21.134;2022-08-20T14:09:19;15.75;;;5.80;;
32485;SDS011;18935;52.236;21.134;2022-08-20T14:11:45;15.10;;;5.27;;
32485;SDS011;18935;52.236;21.134;2022-08-20T14:14:10;10.90;;;5.37;;
32485;SDS011;18935;52.236;21.134;2022-08-20T14:16:35;18.00;;;6.07;;
32485;SDS011;18935;52.236;21.134;2022-08-20T14:19:01;15.48;;;5.38;;
32485;SDS011;18935;52.236;21.134;2022-08-20T14:21:27;9.57;;;5.80;;
32485;SDS011;18935;52.236;21.134;2022-08-20T14:23:52;18.23;;;5.70;;
32485;SDS011;18935;52.236;21.134;2022-08-20T14:26:18;15.90;;;5.53;;
32485;SDS011;18935;52.236;21.134;2022-08-20T14:28:43;16.97;;;5.90;;
32485;SDS011;18935;52.236;21.134;2022-08-20T14:31:08;11.47;;;5.43;;